sensor_id;sensor_type;location;lat;lon;timestamp;temperature;humidity
39525;DHT22;25203;50.754;6.978;2023-02-16T00:00:51;2.90;99.90
39525;DHT22;25203;50.754;6.978;2023-02-16T00:02:52;3.10;99.90
39525;DHT22;25203;50.754;6.978;2023-02-16T00:04:53;3.40;99.90
39525;DHT22;25203;50.754;6.978;2023-02-16T00:06:55;3.70;99.90
39525;DHT22;25203;50.754;6.978;2023-02-16T00:08:56;3.90;99.90
39525;DHT22;25203;50.754;6.978;2023-02-16T00:10:56;4.00;99.90
39525;DHT22;25203;50.754;6.978;2023-02-16T00:13:29;3.70;99.90
39525;DHT22;25203;50.754;6.978;2023-02-16T00:15:47;3.70;99.90
39525;DHT22;25203;50.754;6.978;2023-02-16T00:17:47;3.70;99.90
39525;DHT22;25203;50.754;6.978;2023-02-16T00:19:48;3.60;99.90
39525;DHT22;25203;50.754;6.978;2023-02-16T00:21:51;3.40;99.90
39525;DHT22;25203;50.754;6.978;2023-02-16T00:23:52;3.10;99.90
39525;DHT22;25203;50.754;6.978;2023-02-16T00:25:53;2.80;99.90
39525;DHT22;25203;50.754;6.978;2023-02-16T00:27:53;2.70;99.90
39525;DHT22;25203;50.754;6.978;2023-02-16T00:29:54;2.60;99.90
39525;DHT22;25203;50.754;6.978;2023-02-16T00:31:56;2.60;99.90
39525;DHT22;25203;50.754;6.978;2023-02-16T00:33:58;2.60;99.90
39525;DHT22;25203;50.754;6.978;2023-02-16T00:35:59;2.60;99.90
39525;DHT22;25203;50.754;6.978;2023-02-16T00:38:00;2.60;99.90
39525;DHT22;25203;50.754;6.978;2023-02-16T00:40:00;2.60;99.90
39525;DHT22;25203;50.754;6.978;2023-02-16T00:42:04;2.60;99.90
39525;DHT22;25203;50.754;6.978;2023-02-16T00:44:10;2.60;99.90
39525;DHT22;25203;50.754;6.978;2023-02-16T00:46:13;2.50;99.90
39525;DHT22;25203;50.754;6.978;2023-02-16T00:48:13;2.50;99.90
39525;DHT22;25203;50.754;6.978;2023-02-16T00:50:26;2.50;99.90
39525;DHT22;25203;50.754;6.978;2023-02-16T00:52:35;2.60;99.90
39525;DHT22;25203;50.754;6.978;2023-02-16T00:54:36;2.80;99.90
39525;DHT22;25203;50.754;6.978;2023-02-16T00:56:37;2.90;99.90
39525;DHT22;25203;50.754;6.978;2023-02-16T00:58:38;3.00;99.90
39525;DHT22;25203;50.754;6.978;2023-02-16T01:00:45;3.10;99.90
39525;DHT22;25203;50.754;6.978;2023-02-16T01:02:48;3.10;99.90
39525;DHT22;25203;50.754;6.978;2023-02-16T01:04:49;3.10;99.90
39525;DHT22;25203;50.754;6.978;2023-02-16T01:06:49;3.10;99.90
39525;DHT22;25203;50.754;6.978;2023-02-16T01:09:14;3.00;99.90
39525;DHT22;25203;50.754;6.978;2023-02-16T01:11:34;3.00;99.90
39525;DHT22;25203;50.754;6.978;2023-02-16T01:13:43;2.90;99.90
39525;DHT22;25203;50.754;6.978;2023-02-16T01:15:45;2.80;99.90
39525;DHT22;25203;50.754;6.978;2023-02-16T01:17:46;2.70;99.90
39525;DHT22;25203;50.754;6.978;2023-02-16T01:19:46;2.70;99.90
39525;DHT22;25203;50.754;6.978;2023-02-16T01:21:47;2.70;99.90
39525;DHT22;25203;50.754;6.978;2023-02-16T01:23:47;2.60;99.90
39525;DHT22;25203;50.754;6.978;2023-02-16T01:25:48;2.50;99.90
39525;DHT22;25203;50.754;6.978;2023-02-16T01:27:49;2.50;99.90
39525;DHT22;25203;50.754;6.978;2023-02-16T01:29:49;2.40;99.90
39525;DHT22;25203;50.754;6.978;2023-02-16T01:31:50;2.30;99.90
39525;DHT22;25203;50.754;6.978;2023-02-16T01:33:51;2.20;99.90
39525;DHT22;25203;50.754;6.978;2023-02-16T01:35:53;2.20;99.90
39525;DHT22;25203;50.754;6.978;2023-02-16T01:37:54;2.20;99.90
39525;DHT22;25203;50.754;6.978;2023-02-16T01:39:54;2.20;99.90
39525;DHT22;25203;50.754;6.978;2023-02-16T01:44:14;2.10;99.90
39525;DHT22;25203;50.754;6.978;2023-02-16T01:46:24;2.10;99.90
39525;DHT22;25203;50.754;6.978;2023-02-16T01:48:30;2.10;99.90
39525;DHT22;25203;50.754;6.978;2023-02-16T01:50:53;2.20;99.90
39525;DHT22;25203;50.754;6.978;2023-02-16T01:52:59;2.20;99.90
39525;DHT22;25203;50.754;6.978;2023-02-16T01:57:19;2.10;99.90
39525;DHT22;25203;50.754;6.978;2023-02-16T02:01:41;2.00;99.90
39525;DHT22;25203;50.754;6.978;2023-02-16T02:03:42;2.00;99.90
39525;DHT22;25203;50.754;6.978;2023-02-16T02:06:02;2.00;99.90
39525;DHT22;25203;50.754;6.978;2023-02-16T02:12:41;2.10;99.90
39525;DHT22;25203;50.754;6.978;2023-02-16T02:14:42;2.00;99.90
39525;DHT22;25203;50.754;6.978;2023-02-16T02:17:02;1.80;99.90
39525;DHT22;25203;50.754;6.978;2023-02-16T02:19:03;1.70;99.90
39525;DHT22;25203;50.754;6.978;2023-02-16T02:27:34;1.40;99.90
39525;DHT22;25203;50.754;6.978;2023-02-16T02:36:30;0.60;99.90
39525;DHT22;25203;50.754;6.978;2023-02-16T02:38:47;0.50;99.90
39525;DHT22;25203;50.754;6.978;2023-02-16T02:43:15;0.40;99.90
39525;DHT22;25203;50.754;6.978;2023-02-16T02:45:35;0.40;99.90
39525;DHT22;25203;50.754;6.978;2023-02-16T02:47:45;0.40;99.90
39525;DHT22;25203;50.754;6.978;2023-02-16T02:49:51;0.50;99.90
39525;DHT22;25203;50.754;6.978;2023-02-16T02:51:51;0.40;99.90
39525;DHT22;25203;50.754;6.978;2023-02-16T02:56:16;0.40;99.90
39525;DHT22;25203;50.754;6.978;2023-02-16T02:58:37;0.50;99.90
39525;DHT22;25203;50.754;6.978;2023-02-16T03:00:57;0.60;99.90
39525;DHT22;25203;50.754;6.978;2023-02-16T03:03:05;0.60;99.90
39525;DHT22;25203;50.754;6.978;2023-02-16T03:05:09;0.60;99.90
39525;DHT22;25203;50.754;6.978;2023-02-16T03:07:11;0.50;99.90
39525;DHT22;25203;50.754;6.978;2023-02-16T03:09:13;0.40;99.90
39525;DHT22;25203;50.754;6.978;2023-02-16T03:11:21;0.30;99.90
39525;DHT22;25203;50.754;6.978;2023-02-16T03:13:51;0.30;99.90
39525;DHT22;25203;50.754;6.978;2023-02-16T03:15:56;0.30;99.90
39525;DHT22;25203;50.754;6.978;2023-02-16T03:17:58;0.20;99.90
39525;DHT22;25203;50.754;6.978;2023-02-16T03:20:19;0.50;99.90
39525;DHT22;25203;50.754;6.978;2023-02-16T03:22:40;1.20;99.90
39525;DHT22;25203;50.754;6.978;2023-02-16T03:24:59;1.20;99.90
39525;DHT22;25203;50.754;6.978;2023-02-16T03:27:26;1.30;99.90
39525;DHT22;25203;50.754;6.978;2023-02-16T03:29:47;1.50;99.90
39525;DHT22;25203;50.754;6.978;2023-02-16T03:31:51;1.50;99.90
39525;DHT22;25203;50.754;6.978;2023-02-16T03:33:53;1.40;99.90
39525;DHT22;25203;50.754;6.978;2023-02-16T03:35:54;1.40;99.90
39525;DHT22;25203;50.754;6.978;2023-02-16T03:37:55;1.30;99.90
39525;DHT22;25203;50.754;6.978;2023-02-16T03:39:56;1.40;99.90
39525;DHT22;25203;50.754;6.978;2023-02-16T03:42:15;1.50;99.90
39525;DHT22;25203;50.754;6.978;2023-02-16T03:44:16;1.80;99.90
39525;DHT22;25203;50.754;6.978;2023-02-16T03:46:17;2.00;99.90
39525;DHT22;25203;50.754;6.978;2023-02-16T03:48:18;2.30;99.90
39525;DHT22;25203;50.754;6.978;2023-02-16T03:50:19;2.20;99.90
39525;DHT22;25203;50.754;6.978;2023-02-16T03:52:19;2.00;99.90
39525;DHT22;25203;50.754;6.978;2023-02-16T03:54:20;1.80;99.90
39525;DHT22;25203;50.754;6.978;2023-02-16T03:56:21;1.70;99.90
39525;DHT22;25203;50.754;6.978;2023-02-16T03:58:23;1.80;99.90
39525;DHT22;25203;50.754;6.978;2023-02-16T04:00:24;1.80;99.90
39525;DHT22;25203;50.754;6.978;2023-02-16T04:02:28;1.90;99.90
39525;DHT22;25203;50.754;6.978;2023-02-16T04:04:29;1.80;99.90
39525;DHT22;25203;50.754;6.978;2023-02-16T04:06:29;1.80;99.90
39525;DHT22;25203;50.754;6.978;2023-02-16T04:08:30;1.80;99.90
39525;DHT22;25203;50.754;6.978;2023-02-16T04:10:31;1.80;99.90
39525;DHT22;25203;50.754;6.978;2023-02-16T04:12:31;1.80;99.90
39525;DHT22;25203;50.754;6.978;2023-02-16T04:14:38;2.00;99.90
39525;DHT22;25203;50.754;6.978;2023-02-16T04:16:39;2.30;99.90
39525;DHT22;25203;50.754;6.978;2023-02-16T04:18:39;2.50;99.90
39525;DHT22;25203;50.754;6.978;2023-02-16T04:20:40;2.70;99.90
39525;DHT22;25203;50.754;6.978;2023-02-16T04:22:41;2.80;99.90
39525;DHT22;25203;50.754;6.978;2023-02-16T04:24:41;2.90;99.90
39525;DHT22;25203;50.754;6.978;2023-02-16T04:26:42;3.00;99.90
39525;DHT22;25203;50.754;6.978;2023-02-16T04:28:44;3.10;99.90
39525;DHT22;25203;50.754;6.978;2023-02-16T04:30:45;3.10;99.90
39525;DHT22;25203;50.754;6.978;2023-02-16T04:32:46;3.20;99.90
39525;DHT22;25203;50.754;6.978;2023-02-16T04:34:46;3.10;99.90
39525;DHT22;25203;50.754;6.978;2023-02-16T04:36:47;3.10;99.90
39525;DHT22;25203;50.754;6.978;2023-02-16T04:38:47;3.10;99.90
39525;DHT22;25203;50.754;6.978;2023-02-16T04:40:48;3.10;99.90
39525;DHT22;25203;50.754;6.978;2023-02-16T04:42:48;3.30;99.90
39525;DHT22;25203;50.754;6.978;2023-02-16T04:44:49;3.50;99.90
39525;DHT22;25203;50.754;6.978;2023-02-16T04:46:50;3.60;99.90
39525;DHT22;25203;50.754;6.978;2023-02-16T04:48:51;3.70;99.90
39525;DHT22;25203;50.754;6.978;2023-02-16T04:50:51;3.70;99.90
39525;DHT22;25203;50.754;6.978;2023-02-16T04:52:52;3.70;99.90
39525;DHT22;25203;50.754;6.978;2023-02-16T04:54:52;3.60;99.90
39525;DHT22;25203;50.754;6.978;2023-02-16T04:56:53;3.40;99.90
39525;DHT22;25203;50.754;6.978;2023-02-16T04:58:55;3.30;99.90
39525;DHT22;25203;50.754;6.978;2023-02-16T05:00:55;3.00;99.90
39525;DHT22;25203;50.754;6.978;2023-02-16T05:02:56;2.90;99.90
39525;DHT22;25203;50.754;6.978;2023-02-16T05:04:57;2.90;99.90
39525;DHT22;25203;50.754;6.978;2023-02-16T05:06:57;2.80;99.90
39525;DHT22;25203;50.754;6.978;2023-02-16T05:08:58;2.70;99.90
39525;DHT22;25203;50.754;6.978;2023-02-16T05:10:58;2.70;99.90
39525;DHT22;25203;50.754;6.978;2023-02-16T05:13:17;2.60;99.90
39525;DHT22;25203;50.754;6.978;2023-02-16T05:15:37;2.40;99.90
39525;DHT22;25203;50.754;6.978;2023-02-16T05:17:37;2.40;99.90
39525;DHT22;25203;50.754;6.978;2023-02-16T05:19:38;2.30;99.90
39525;DHT22;25203;50.754;6.978;2023-02-16T05:21:40;2.20;99.90
39525;DHT22;25203;50.754;6.978;2023-02-16T05:23:40;2.30;99.90
39525;DHT22;25203;50.754;6.978;2023-02-16T05:25:41;2.30;99.90
39525;DHT22;25203;50.754;6.978;2023-02-16T05:27:41;2.20;99.90
39525;DHT22;25203;50.754;6.978;2023-02-16T05:29:42;2.10;99.90
39525;DHT22;25203;50.754;6.978;2023-02-16T05:31:43;2.00;99.90
39525;DHT22;25203;50.754;6.978;2023-02-16T05:33:43;1.90;99.90
39525;DHT22;25203;50.754;6.978;2023-02-16T05:35:44;1.80;99.90
39525;DHT22;25203;50.754;6.978;2023-02-16T05:37:44;1.70;99.90
39525;DHT22;25203;50.754;6.978;2023-02-16T05:39:45;1.70;99.90
39525;DHT22;25203;50.754;6.978;2023-02-16T05:41:46;1.80;99.90
39525;DHT22;25203;50.754;6.978;2023-02-16T05:43:54;2.10;99.90
39525;DHT22;25203;50.754;6.978;2023-02-16T05:45:55;2.30;99.90
39525;DHT22;25203;50.754;6.978;2023-02-16T05:47:56;2.60;99.90
39525;DHT22;25203;50.754;6.978;2023-02-16T05:49:56;2.70;99.90
39525;DHT22;25203;50.754;6.978;2023-02-16T05:51:57;2.90;99.90
39525;DHT22;25203;50.754;6.978;2023-02-16T05:53:57;2.90;99.90
39525;DHT22;25203;50.754;6.978;2023-02-16T05:55:58;3.00;99.90
39525;DHT22;25203;50.754;6.978;2023-02-16T05:57:59;3.10;99.90
39525;DHT22;25203;50.754;6.978;2023-02-16T05:59:59;3.20;99.90
39525;DHT22;25203;50.754;6.978;2023-02-16T06:02:00;3.20;99.90
39525;DHT22;25203;50.754;6.978;2023-02-16T06:04:01;3.20;99.90
39525;DHT22;25203;50.754;6.978;2023-02-16T06:06:03;3.20;99.90
39525;DHT22;25203;50.754;6.978;2023-02-16T06:08:03;3.20;99.90
39525;DHT22;25203;50.754;6.978;2023-02-16T06:10:05;3.20;99.90
39525;DHT22;25203;50.754;6.978;2023-02-16T06:12:05;3.20;99.90
39525;DHT22;25203;50.754;6.978;2023-02-16T06:14:11;3.20;99.90
39525;DHT22;25203;50.754;6.978;2023-02-16T06:16:12;3.30;99.90
39525;DHT22;25203;50.754;6.978;2023-02-16T06:18:13;3.30;99.90
39525;DHT22;25203;50.754;6.978;2023-02-16T06:20:13;3.20;99.90
39525;DHT22;25203;50.754;6.978;2023-02-16T06:22:14;3.20;99.90
39525;DHT22;25203;50.754;6.978;2023-02-16T06:24:14;3.10;99.90
39525;DHT22;25203;50.754;6.978;2023-02-16T06:26:15;3.10;99.90
39525;DHT22;25203;50.754;6.978;2023-02-16T06:28:16;3.10;99.90
39525;DHT22;25203;50.754;6.978;2023-02-16T06:30:17;3.00;99.90
39525;DHT22;25203;50.754;6.978;2023-02-16T06:32:18;3.00;99.90
39525;DHT22;25203;50.754;6.978;2023-02-16T06:34:19;3.00;99.90
39525;DHT22;25203;50.754;6.978;2023-02-16T06:36:20;2.90;99.90
39525;DHT22;25203;50.754;6.978;2023-02-16T06:38:20;2.80;99.90
39525;DHT22;25203;50.754;6.978;2023-02-16T06:40:21;2.80;99.90
39525;DHT22;25203;50.754;6.978;2023-02-16T06:42:21;2.90;99.90
39525;DHT22;25203;50.754;6.978;2023-02-16T06:44:22;3.00;99.90
39525;DHT22;25203;50.754;6.978;2023-02-16T06:46:22;3.30;99.90
39525;DHT22;25203;50.754;6.978;2023-02-16T06:48:23;3.40;99.90
39525;DHT22;25203;50.754;6.978;2023-02-16T06:50:24;3.50;99.90
39525;DHT22;25203;50.754;6.978;2023-02-16T06:52:24;3.60;99.90
39525;DHT22;25203;50.754;6.978;2023-02-16T06:54:25;3.70;99.90
39525;DHT22;25203;50.754;6.978;2023-02-16T06:56:25;3.80;99.90
39525;DHT22;25203;50.754;6.978;2023-02-16T06:58:26;3.90;99.90
39525;DHT22;25203;50.754;6.978;2023-02-16T07:00:27;3.90;99.90
39525;DHT22;25203;50.754;6.978;2023-02-16T07:02:29;4.00;99.90
39525;DHT22;25203;50.754;6.978;2023-02-16T07:04:29;4.20;99.90
39525;DHT22;25203;50.754;6.978;2023-02-16T07:06:30;4.30;99.90
39525;DHT22;25203;50.754;6.978;2023-02-16T07:08:31;4.40;99.90
39525;DHT22;25203;50.754;6.978;2023-02-16T07:10:31;4.60;99.90
39525;DHT22;25203;50.754;6.978;2023-02-16T07:12:32;4.70;99.90
39525;DHT22;25203;50.754;6.978;2023-02-16T07:14:32;4.80;99.90
39525;DHT22;25203;50.754;6.978;2023-02-16T07:16:33;4.90;99.90
39525;DHT22;25203;50.754;6.978;2023-02-16T07:18:34;5.00;99.90
39525;DHT22;25203;50.754;6.978;2023-02-16T07:20:35;5.00;99.90
39525;DHT22;25203;50.754;6.978;2023-02-16T07:22:35;5.10;99.90
39525;DHT22;25203;50.754;6.978;2023-02-16T07:24:36;5.20;99.90
39525;DHT22;25203;50.754;6.978;2023-02-16T07:26:36;5.30;99.90
39525;DHT22;25203;50.754;6.978;2023-02-16T07:28:38;5.40;99.90
39525;DHT22;25203;50.754;6.978;2023-02-16T07:30:39;5.50;99.90
39525;DHT22;25203;50.754;6.978;2023-02-16T07:32:39;5.60;99.90
39525;DHT22;25203;50.754;6.978;2023-02-16T07:34:40;5.60;99.90
39525;DHT22;25203;50.754;6.978;2023-02-16T07:36:41;5.70;99.90
39525;DHT22;25203;50.754;6.978;2023-02-16T07:38:41;5.90;99.90
39525;DHT22;25203;50.754;6.978;2023-02-16T07:40:42;6.20;99.90
39525;DHT22;25203;50.754;6.978;2023-02-16T07:42:43;6.30;99.90
39525;DHT22;25203;50.754;6.978;2023-02-16T07:44:43;6.30;99.90
39525;DHT22;25203;50.754;6.978;2023-02-16T07:46:44;6.10;99.90
39525;DHT22;25203;50.754;6.978;2023-02-16T07:48:48;6.10;99.90
39525;DHT22;25203;50.754;6.978;2023-02-16T07:50:49;6.00;99.90
39525;DHT22;25203;50.754;6.978;2023-02-16T07:52:50;6.00;99.90
39525;DHT22;25203;50.754;6.978;2023-02-16T07:54:50;6.00;99.90
39525;DHT22;25203;50.754;6.978;2023-02-16T07:56:51;5.90;99.90
39525;DHT22;25203;50.754;6.978;2023-02-16T07:58:53;5.90;99.90
39525;DHT22;25203;50.754;6.978;2023-02-16T08:03:08;5.90;99.90
39525;DHT22;25203;50.754;6.978;2023-02-16T08:05:08;5.90;99.90
39525;DHT22;25203;50.754;6.978;2023-02-16T08:07:13;6.00;99.90
39525;DHT22;25203;50.754;6.978;2023-02-16T08:09:14;6.00;99.90
39525;DHT22;25203;50.754;6.978;2023-02-16T08:11:18;6.00;99.90
39525;DHT22;25203;50.754;6.978;2023-02-16T08:13:18;6.10;99.90
39525;DHT22;25203;50.754;6.978;2023-02-16T08:15:19;6.30;99.90
39525;DHT22;25203;50.754;6.978;2023-02-16T08:17:19;6.40;99.90
39525;DHT22;25203;50.754;6.978;2023-02-16T08:19:20;6.60;99.90
39525;DHT22;25203;50.754;6.978;2023-02-16T08:21:22;6.70;99.90
39525;DHT22;25203;50.754;6.978;2023-02-16T08:23:24;6.80;99.90
39525;DHT22;25203;50.754;6.978;2023-02-16T08:25:24;6.90;99.90
39525;DHT22;25203;50.754;6.978;2023-02-16T08:27:25;7.20;99.90
39525;DHT22;25203;50.754;6.978;2023-02-16T08:29:26;7.40;99.90
39525;DHT22;25203;50.754;6.978;2023-02-16T08:31:29;7.70;99.90
39525;DHT22;25203;50.754;6.978;2023-02-16T08:33:30;8.00;99.90
39525;DHT22;25203;50.754;6.978;2023-02-16T08:35:36;8.20;99.90
39525;DHT22;25203;50.754;6.978;2023-02-16T08:37:37;8.20;99.90
39525;DHT22;25203;50.754;6.978;2023-02-16T08:39:38;8.20;99.90
39525;DHT22;25203;50.754;6.978;2023-02-16T08:41:40;8.10;99.90
39525;DHT22;25203;50.754;6.978;2023-02-16T08:43:41;8.00;99.90
39525;DHT22;25203;50.754;6.978;2023-02-16T08:45:48;8.00;99.90
39525;DHT22;25203;50.754;6.978;2023-02-16T08:47:48;8.00;99.90
39525;DHT22;25203;50.754;6.978;2023-02-16T08:49:52;8.10;99.90
39525;DHT22;25203;50.754;6.978;2023-02-16T08:51:55;8.00;99.90
39525;DHT22;25203;50.754;6.978;2023-02-16T08:53:57;8.00;99.90
39525;DHT22;25203;50.754;6.978;2023-02-16T08:56:00;7.90;99.90
39525;DHT22;25203;50.754;6.978;2023-02-16T08:58:02;7.80;99.90
39525;DHT22;25203;50.754;6.978;2023-02-16T09:00:03;7.70;99.90
39525;DHT22;25203;50.754;6.978;2023-02-16T09:02:23;7.70;99.90
39525;DHT22;25203;50.754;6.978;2023-02-16T09:04:24;8.00;99.90
39525;DHT22;25203;50.754;6.978;2023-02-16T09:06:24;8.20;99.90
39525;DHT22;25203;50.754;6.978;2023-02-16T09:08:25;8.40;99.90
39525;DHT22;25203;50.754;6.978;2023-02-16T09:10:26;8.60;99.90
39525;DHT22;25203;50.754;6.978;2023-02-16T09:12:26;8.70;99.90
39525;DHT22;25203;50.754;6.978;2023-02-16T09:14:29;8.70;99.90
39525;DHT22;25203;50.754;6.978;2023-02-16T09:16:30;8.90;99.90
39525;DHT22;25203;50.754;6.978;2023-02-16T09:18:36;9.10;99.90
39525;DHT22;25203;50.754;6.978;2023-02-16T09:20:39;9.30;99.90
39525;DHT22;25203;50.754;6.978;2023-02-16T09:22:43;9.70;99.90
39525;DHT22;25203;50.754;6.978;2023-02-16T09:24:43;10.60;99.90
39525;DHT22;25203;50.754;6.978;2023-02-16T09:26:45;11.60;99.90
39525;DHT22;25203;50.754;6.978;2023-02-16T09:28:46;12.20;99.00
39525;DHT22;25203;50.754;6.978;2023-02-16T09:30:48;12.30;97.80
39525;DHT22;25203;50.754;6.978;2023-02-16T09:32:48;12.30;98.00
39525;DHT22;25203;50.754;6.978;2023-02-16T09:34:49;12.80;97.90
39525;DHT22;25203;50.754;6.978;2023-02-16T09:36:50;13.60;97.20
39525;DHT22;25203;50.754;6.978;2023-02-16T09:38:51;14.70;95.80
39525;DHT22;25203;50.754;6.978;2023-02-16T09:40:55;16.10;93.00
39525;DHT22;25203;50.754;6.978;2023-02-16T09:43:26;17.10;88.70
39525;DHT22;25203;50.754;6.978;2023-02-16T09:45:31;18.10;82.90
39525;DHT22;25203;50.754;6.978;2023-02-16T09:47:44;18.40;79.10
39525;DHT22;25203;50.754;6.978;2023-02-16T09:49:47;18.40;77.60
39525;DHT22;25203;50.754;6.978;2023-02-16T09:51:52;18.70;76.40
39525;DHT22;25203;50.754;6.978;2023-02-16T09:53:58;18.60;76.50
39525;DHT22;25203;50.754;6.978;2023-02-16T09:56:23;19.20;74.90
39525;DHT22;25203;50.754;6.978;2023-02-16T10:00:59;19.10;73.70
39525;DHT22;25203;50.754;6.978;2023-02-16T10:03:23;18.80;74.30
39525;DHT22;25203;50.754;6.978;2023-02-16T10:05:30;18.60;74.50
39525;DHT22;25203;50.754;6.978;2023-02-16T10:09:55;18.50;73.70
39525;DHT22;25203;50.754;6.978;2023-02-16T10:12:08;17.90;76.00
39525;DHT22;25203;50.754;6.978;2023-02-16T10:15:08;17.40;75.60
39525;DHT22;25203;50.754;6.978;2023-02-16T10:16:52;16.50;78.10
39525;DHT22;25203;50.754;6.978;2023-02-16T10:18:54;15.40;80.80
39525;DHT22;25203;50.754;6.978;2023-02-16T10:20:58;14.30;85.40
39525;DHT22;25203;50.754;6.978;2023-02-16T10:25:15;12.60;92.00
39525;DHT22;25203;50.754;6.978;2023-02-16T10:27:20;12.20;93.70
39525;DHT22;25203;50.754;6.978;2023-02-16T10:29:21;11.90;95.80
39525;DHT22;25203;50.754;6.978;2023-02-16T10:31:42;11.80;97.90
39525;DHT22;25203;50.754;6.978;2023-02-16T10:33:48;11.60;98.00
39525;DHT22;25203;50.754;6.978;2023-02-16T10:36:13;11.40;99.50
39525;DHT22;25203;50.754;6.978;2023-02-16T10:45:51;11.10;99.90
39525;DHT22;25203;50.754;6.978;2023-02-16T10:47:52;11.00;99.90
39525;DHT22;25203;50.754;6.978;2023-02-16T10:49:54;11.00;99.90
39525;DHT22;25203;50.754;6.978;2023-02-16T10:51:55;11.10;99.90
39525;DHT22;25203;50.754;6.978;2023-02-16T10:54:03;11.10;99.90
39525;DHT22;25203;50.754;6.978;2023-02-16T10:58:27;11.20;99.90
39525;DHT22;25203;50.754;6.978;2023-02-16T11:00:45;11.30;99.90
39525;DHT22;25203;50.754;6.978;2023-02-16T11:02:49;11.40;99.90
39525;DHT22;25203;50.754;6.978;2023-02-16T11:04:55;11.50;99.90
39525;DHT22;25203;50.754;6.978;2023-02-16T11:07:11;11.50;99.90
39525;DHT22;25203;50.754;6.978;2023-02-16T11:09:14;11.60;99.90
39525;DHT22;25203;50.754;6.978;2023-02-16T11:11:15;11.70;99.90
39525;DHT22;25203;50.754;6.978;2023-02-16T11:13:24;11.80;99.90
39525;DHT22;25203;50.754;6.978;2023-02-16T11:15:27;12.00;99.90
39525;DHT22;25203;50.754;6.978;2023-02-16T11:17:27;12.00;99.80
39525;DHT22;25203;50.754;6.978;2023-02-16T11:19:29;12.10;99.50
39525;DHT22;25203;50.754;6.978;2023-02-16T11:21:47;12.00;99.50
39525;DHT22;25203;50.754;6.978;2023-02-16T11:23:58;12.10;99.60
39525;DHT22;25203;50.754;6.978;2023-02-16T11:26:19;12.10;99.40
39525;DHT22;25203;50.754;6.978;2023-02-16T11:28:38;12.10;99.20
39525;DHT22;25203;50.754;6.978;2023-02-16T11:30:41;12.10;99.50
39525;DHT22;25203;50.754;6.978;2023-02-16T11:32:42;12.00;99.60
39525;DHT22;25203;50.754;6.978;2023-02-16T11:34:48;12.00;99.60
39525;DHT22;25203;50.754;6.978;2023-02-16T11:36:49;12.00;99.70
39525;DHT22;25203;50.754;6.978;2023-02-16T11:41:06;11.90;99.70
39525;DHT22;25203;50.754;6.978;2023-02-16T11:43:16;11.90;99.60
39525;DHT22;25203;50.754;6.978;2023-02-16T11:45:33;11.90;99.90
39525;DHT22;25203;50.754;6.978;2023-02-16T11:47:36;12.00;99.70
39525;DHT22;25203;50.754;6.978;2023-02-16T11:49:40;11.90;99.90
39525;DHT22;25203;50.754;6.978;2023-02-16T11:51:41;12.00;99.90
39525;DHT22;25203;50.754;6.978;2023-02-16T11:53:42;12.10;99.90
39525;DHT22;25203;50.754;6.978;2023-02-16T11:55:46;12.20;99.90
39525;DHT22;25203;50.754;6.978;2023-02-16T11:57:47;12.10;99.90
39525;DHT22;25203;50.754;6.978;2023-02-16T11:59:48;12.10;99.90
39525;DHT22;25203;50.754;6.978;2023-02-16T12:04:20;12.10;99.90
39525;DHT22;25203;50.754;6.978;2023-02-16T12:11:06;12.10;99.90
39525;DHT22;25203;50.754;6.978;2023-02-16T12:15:36;12.10;99.90
39525;DHT22;25203;50.754;6.978;2023-02-16T12:22:31;12.10;99.90
39525;DHT22;25203;50.754;6.978;2023-02-16T12:27:05;12.10;99.90
39525;DHT22;25203;50.754;6.978;2023-02-16T12:29:17;12.10;99.90
39525;DHT22;25203;50.754;6.978;2023-02-16T12:31:48;12.10;99.90
39525;DHT22;25203;50.754;6.978;2023-02-16T12:36:16;12.10;99.90
39525;DHT22;25203;50.754;6.978;2023-02-16T12:43:41;12.10;99.90
39525;DHT22;25203;50.754;6.978;2023-02-16T12:45:43;12.10;99.90
39525;DHT22;25203;50.754;6.978;2023-02-16T12:47:46;12.00;99.90
39525;DHT22;25203;50.754;6.978;2023-02-16T12:50:00;12.00;99.90
39525;DHT22;25203;50.754;6.978;2023-02-16T12:52:30;11.90;99.90
39525;DHT22;25203;50.754;6.978;2023-02-16T12:54:39;11.80;99.90
39525;DHT22;25203;50.754;6.978;2023-02-16T12:56:45;11.80;99.90
39525;DHT22;25203;50.754;6.978;2023-02-16T12:58:50;11.80;99.90
39525;DHT22;25203;50.754;6.978;2023-02-16T13:01:03;11.90;99.90
39525;DHT22;25203;50.754;6.978;2023-02-16T13:05:35;11.90;99.90
39525;DHT22;25203;50.754;6.978;2023-02-16T13:07:50;11.90;99.90
39525;DHT22;25203;50.754;6.978;2023-02-16T13:10:13;12.00;99.90
39525;DHT22;25203;50.754;6.978;2023-02-16T13:14:33;12.00;99.90
39525;DHT22;25203;50.754;6.978;2023-02-16T13:18:42;12.00;99.90
39525;DHT22;25203;50.754;6.978;2023-02-16T13:20:51;12.00;99.90
39525;DHT22;25203;50.754;6.978;2023-02-16T13:23:02;12.00;99.90
39525;DHT22;25203;50.754;6.978;2023-02-16T13:37:57;11.70;99.90
39525;DHT22;25203;50.754;6.978;2023-02-16T13:40:09;11.70;99.90
39525;DHT22;25203;50.754;6.978;2023-02-16T13:44:41;11.60;99.90
39525;DHT22;25203;50.754;6.978;2023-02-16T13:46:45;11.50;99.90
39525;DHT22;25203;50.754;6.978;2023-02-16T13:48:50;11.50;99.90
39525;DHT22;25203;50.754;6.978;2023-02-16T13:51:02;11.50;99.90
39525;DHT22;25203;50.754;6.978;2023-02-16T13:53:19;11.50;99.90
39525;DHT22;25203;50.754;6.978;2023-02-16T13:55:30;11.50;99.90
39525;DHT22;25203;50.754;6.978;2023-02-16T13:59:49;11.60;99.90
39525;DHT22;25203;50.754;6.978;2023-02-16T14:01:57;11.70;99.90
39525;DHT22;25203;50.754;6.978;2023-02-16T14:04:01;11.80;99.90
39525;DHT22;25203;50.754;6.978;2023-02-16T14:08:28;12.10;99.90
39525;DHT22;25203;50.754;6.978;2023-02-16T14:12:55;12.40;99.90
39525;DHT22;25203;50.754;6.978;2023-02-16T14:14:58;12.50;99.90
39525;DHT22;25203;50.754;6.978;2023-02-16T14:19:23;12.60;99.90
39525;DHT22;25203;50.754;6.978;2023-02-16T14:23:28;12.70;99.90
39525;DHT22;25203;50.754;6.978;2023-02-16T14:25:36;12.70;99.90
39525;DHT22;25203;50.754;6.978;2023-02-16T14:27:42;12.70;99.90
39525;DHT22;25203;50.754;6.978;2023-02-16T14:29:54;12.70;99.50
39525;DHT22;25203;50.754;6.978;2023-02-16T14:34:22;12.70;99.90
39525;DHT22;25203;50.754;6.978;2023-02-16T14:36:23;12.70;99.90
39525;DHT22;25203;50.754;6.978;2023-02-16T14:38:33;12.70;99.90
39525;DHT22;25203;50.754;6.978;2023-02-16T14:42:35;12.80;99.50
39525;DHT22;25203;50.754;6.978;2023-02-16T14:46:57;12.90;98.90
39525;DHT22;25203;50.754;6.978;2023-02-16T14:56:36;13.10;98.00
39525;DHT22;25203;50.754;6.978;2023-02-16T14:58:55;13.20;97.60
39525;DHT22;25203;50.754;6.978;2023-02-16T15:01:03;13.30;97.80
39525;DHT22;25203;50.754;6.978;2023-02-16T15:03:25;13.40;97.20
39525;DHT22;25203;50.754;6.978;2023-02-16T15:05:32;13.40;96.80
39525;DHT22;25203;50.754;6.978;2023-02-16T15:07:33;13.50;96.60
39525;DHT22;25203;50.754;6.978;2023-02-16T15:09:34;13.40;96.50
39525;DHT22;25203;50.754;6.978;2023-02-16T15:14:10;13.10;97.20
39525;DHT22;25203;50.754;6.978;2023-02-16T15:16:11;13.20;96.90
39525;DHT22;25203;50.754;6.978;2023-02-16T15:18:18;13.10;97.00
39525;DHT22;25203;50.754;6.978;2023-02-16T15:20:27;13.00;97.10